»·PEaware :: N915TB KBAM-KBAB

N915TB :: KBAM-KBAB

FLIGHT INFORMATION

Flight Status: Arrived
Operator: Privately registered:
United States
More flights under this callsign
Pilot: Jake M. (20491)
Aircraft: SOCATA TBM-900
(TBM9)
More flights by this aircraft type
Origin: KBAM Battle Mountain
United States
Destination: KBAB Beale AFB
United States
More flights between these airports :: More routes between these airports
Route: CUTVA V6 FMG V200 RANGO
File this flight plan on PilotEdge
Remarks:
Altitude:
(Current/Filed)
24,000ft
Speed:
(Current/Filed)
300kts
Departed: 28-Dec-19 02:30 PM
Arrived: 28-Dec-19 03:29 PM
Distance/Time
Traveled:
227nm/0:58
Distance/Time
To Go:
Arrived

Flight Plot

Page will automatically refresh every two minutes.

Flight plan parsing failed; only flown route is shown


Map Options




Map Legend


Flown Route
Filed Route
Departure Airport
Arrival Airport
Navaid (VOR, NDB)
Fix

Horizontal Profiles

Position Reports

Time Latitude Longitude Heading Altitude Ground
Speed
28-Dec-19 14:16 40.607265 -116.873466 350 4527ft 0kts
28-Dec-19 14:17 40.607265 -116.873466 350 4527ft 0kts
28-Dec-19 14:18 40.607265 -116.873466 350 4527ft 0kts
28-Dec-19 14:19 40.607265 -116.873466 350 4527ft 0kts
28-Dec-19 14:20 40.607265 -116.873466 350 4527ft 0kts
28-Dec-19 14:21 40.607265 -116.873466 350 4527ft 0kts
28-Dec-19 14:22 40.607265 -116.873466 350 4527ft 0kts
28-Dec-19 14:23 40.607265 -116.873466 350 4527ft 0kts
28-Dec-19 14:24 40.607265 -116.873466 350 4527ft 0kts
28-Dec-19 14:25 40.607266 -116.873466 350 4527ft 0kts
28-Dec-19 14:26 40.607266 -116.873466 350 4527ft 0kts
28-Dec-19 14:28 40.605749 -116.874308 195 4530ft 18kts
28-Dec-19 14:29 40.600529 -116.876692 170 4531ft 16kts
28-Dec-19 14:30 40.585309 -116.858951 140 4952ft 123kts
28-Dec-19 14:31 40.562146 -116.877178 252 6773ft 119kts
28-Dec-19 14:32 40.551329 -116.925388 253 8281ft 154kts
28-Dec-19 14:33 40.537992 -116.981226 259 10189ft 163kts
28-Dec-19 14:34 40.523904 -117.040936 266 12057ft 173kts
28-Dec-19 14:35 40.509333 -117.103359 267 13833ft 177kts
28-Dec-19 14:36 40.494152 -117.167682 268 15625ft 185kts
28-Dec-19 14:37 40.478370 -117.234273 269 17400ft 189kts
28-Dec-19 14:38 40.462305 -117.301838 270 18920ft 193kts
28-Dec-19 14:39 40.445943 -117.370545 270 20254ft 196kts
28-Dec-19 14:40 40.429343 -117.439925 270 21574ft 199kts
28-Dec-19 14:41 40.412487 -117.510102 271 23208ft 200kts
28-Dec-19 14:42 40.395036 -117.583444 268 24243ft 235kts
28-Dec-19 14:43 40.370952 -117.675019 263 24227ft 280kts
28-Dec-19 14:44 40.344164 -117.774837 262 24218ft 296kts
28-Dec-19 14:44 40.321058 -117.860694 262 24215ft 301kts
28-Dec-19 14:46 40.288143 -117.982616 262 24224ft 303kts
28-Dec-19 14:47 40.259741 -118.087388 261 24231ft 304kts
28-Dec-19 14:47 40.236053 -118.174423 261 24232ft 304kts
28-Dec-19 14:48 40.207505 -118.278923 261 24232ft 304kts
28-Dec-19 14:50 40.174015 -118.400984 261 24232ft 305kts
28-Dec-19 14:50 40.149873 -118.488636 261 24232ft 305kts
28-Dec-19 14:51 40.118049 -118.591422 245 24229ft 320kts
28-Dec-19 14:53 40.057208 -118.703029 244 24236ft 320kts
28-Dec-19 14:53 40.013937 -118.782507 244 24236ft 321kts
28-Dec-19 14:54 39.962147 -118.877370 244 24234ft 321kts
28-Dec-19 14:55 39.910239 -118.972200 243 24231ft 321kts
28-Dec-19 14:56 39.858339 -119.066678 243 24213ft 319kts
28-Dec-19 14:57 39.806734 -119.160364 243 24214ft 317kts
28-Dec-19 14:58 39.755341 -119.253390 243 24215ft 316kts
28-Dec-19 14:59 39.703961 -119.346142 243 24215ft 316kts
28-Dec-19 15:00 39.652593 -119.438657 242 24215ft 316kts
28-Dec-19 15:01 39.600882 -119.531520 242 24213ft 316kts
28-Dec-19 15:02 39.549377 -119.623732 242 24210ft 315kts
28-Dec-19 15:03 39.518867 -119.723581 265 24212ft 296kts
28-Dec-19 15:04 39.499766 -119.827825 265 24138ft 297kts
28-Dec-19 15:05 39.480514 -119.931980 265 22936ft 297kts
28-Dec-19 15:06 39.461193 -120.036131 264 21741ft 297kts
28-Dec-19 15:07 39.441738 -120.140172 264 20541ft 296kts
28-Dec-19 15:08 39.422303 -120.243672 263 19341ft 295kts
28-Dec-19 15:09 39.402934 -120.346338 263 18145ft 293kts
28-Dec-19 15:10 39.383444 -120.449049 263 16941ft 293kts
28-Dec-19 15:11 39.363839 -120.551878 263 15736ft 293kts
28-Dec-19 15:12 39.344156 -120.654580 262 14588ft 295kts
28-Dec-19 15:13 39.324142 -120.758347 262 13396ft 298kts
28-Dec-19 15:14 39.303916 -120.862796 262 12212ft 299kts
28-Dec-19 15:15 39.284005 -120.964827 262 11675ft 282kts
28-Dec-19 15:16 39.257867 -121.057359 222 11501ft 292kts
28-Dec-19 15:17 39.181171 -121.084758 206 9958ft 289kts
28-Dec-19 15:18 39.106638 -121.114886 200 8711ft 273kts
28-Dec-19 15:19 39.036915 -121.144308 204 8167ft 248kts
28-Dec-19 15:20 38.976779 -121.191260 220 5455ft 252kts
28-Dec-19 15:21 38.932081 -121.252259 236 3568ft 211kts
28-Dec-19 15:22 38.923759 -121.308765 311 3264ft 181kts
28-Dec-19 15:23 38.961637 -121.351543 7 3434ft 195kts
28-Dec-19 15:24 39.014012 -121.375771 328 2445ft 216kts
28-Dec-19 15:25 39.065682 -121.406092 336 1247ft 170kts
28-Dec-19 15:26 39.103249 -121.422323 341 498ft 112kts
28-Dec-19 15:27 39.130527 -121.434211 340 102ft 72kts
28-Dec-19 15:28 39.140354 -121.437094 74 103ft 13kts
28-Dec-19 15:29 39.140810 -121.433251 113 115ft 10kts
28-Dec-19 15:30 39.140900 -121.430210 78 124ft 0kts
28-Dec-19 15:31 39.140900 -121.430210 78 124ft 0kts
28-Dec-19 15:32 39.140900 -121.430210 78 124ft 0kts
28-Dec-19 15:33 39.140900 -121.430210 78 124ft 0kts

Navigation Log

Ident Type
Flight plan parsing failed, navigation log unavailable